Time;durP1;ratioP1;P1;durP2;ratioP2;P2;SDS_P1;SDS_P2;PMS_P1;PMS_P2;Temp;Humidity;BMP_temperature;BMP_pressure;BME280_temperature;BME280_humidity;BME280_pressure;Samples;Min_cycle;Max_cycle;Signal;HPM_P1;HPM_P2
2022/06/15 00:00:39;;;;;;;7.32;3.47;;;16.30;99.90;;;;;;5094077;28;20054;-74
2022/06/15 00:03:05;;;;;;;7.25;3.65;;;16.20;99.90;;;;;;5094397;28;20032;-74
2022/06/15 00:05:31;;;;;;;9.65;3.60;;;16.20;99.90;;;;;;5093810;28;20020;-74
2022/06/15 00:07:57;;;;;;;7.18;3.67;;;16.20;99.90;;;;;;5093936;28;20414;-74
2022/06/15 00:10:23;;;;;;;11.65;4.68;;;16.20;99.90;;;;;;5093370;28;20024;-75
2022/06/15 00:12:50;;;;;;;6.10;3.63;;;16.20;99.90;;;;;;5093406;28;20427;-75
2022/06/15 00:15:16;;;;;;;8.82;3.88;;;16.20;99.90;;;;;;5093826;28;20024;-74
2022/06/15 00:17:42;;;;;;;6.57;3.70;;;16.10;99.90;;;;;;5093852;28;20032;-75
2022/06/15 00:20:09;;;;;;;6.35;3.80;;;16.10;99.90;;;;;;5093657;28;20367;-74
2022/06/15 00:22:34;;;;;;;6.43;3.63;;;16.20;99.90;;;;;;5083071;28;20085;-73
2022/06/15 00:25:00;;;;;;;8.23;3.97;;;16.10;99.90;;;;;;5089520;28;20102;-74
2022/06/15 00:27:27;;;;;;;6.45;3.53;;;16.10;99.90;;;;;;5093579;28;20024;-75
2022/06/15 00:29:55;;;;;;;12.50;4.35;;;16.10;99.90;;;;;;5092251;28;20080;-74
2022/06/15 00:32:20;;;;;;;6.35;3.42;;;16.00;99.90;;;;;;5092500;28;20032;-74
2022/06/15 00:34:46;;;;;;;6.65;3.55;;;15.90;99.90;;;;;;5092176;28;20031;-73
2022/06/15 00:37:12;;;;;;;12.13;3.42;;;15.80;99.90;;;;;;5093410;28;20107;-73
2022/06/15 00:39:38;;;;;;;7.07;3.17;;;15.80;99.90;;;;;;5090269;28;20016;-74
2022/06/15 00:42:05;;;;;;;11.07;5.05;;;15.80;99.90;;;;;;5089676;28;20030;-73
2022/06/15 00:44:35;;;;;;;10.13;4.50;;;15.90;99.90;;;;;;5080283;28;20119;-70
2022/06/15 00:47:29;;;;;;;7.30;3.97;;;15.80;99.90;;;;;;5092208;28;20478;-71
2022/06/15 00:50:09;;;;;;;8.02;3.90;;;15.80;99.90;;;;;;5085574;28;20056;-70
2022/06/15 00:52:45;;;;;;;9.98;3.80;;;15.80;99.90;;;;;;5090215;28;20021;-70
2022/06/15 00:55:30;;;;;;;8.65;4.43;;;15.80;99.90;;;;;;5077279;28;20031;-70
2022/06/15 00:57:59;;;;;;;7.28;3.88;;;15.70;99.90;;;;;;5070955;28;20024;-70
2022/06/15 01:00:27;;;;;;;6.35;4.13;;;15.70;99.90;;;;;;5072381;28;20032;-70
2022/06/15 01:02:53;;;;;;;5.68;3.83;;;15.70;99.90;;;;;;5070386;28;20040;-69
2022/06/15 01:05:25;;;;;;;9.60;3.80;;;15.70;99.90;;;;;;5071322;28;20036;-68
2022/06/15 01:07:57;;;;;;;8.68;2.97;;;15.70;99.90;;;;;;5074990;28;20466;-70
2022/06/15 01:10:53;;;;;;;8.88;4.32;;;15.70;99.90;;;;;;5069825;28;20056;-70
2022/06/15 01:13:52;;;;;;;4.68;3.35;;;15.60;99.90;;;;;;5065929;28;20040;-68
2022/06/15 01:16:46;;;;;;;8.05;3.00;;;15.50;99.90;;;;;;5072374;28;20039;-71
2022/06/15 01:19:41;;;;;;;6.70;3.45;;;15.50;99.90;;;;;;5067899;28;20056;-70
2022/06/15 01:22:26;;;;;;;8.63;3.05;;;15.40;99.90;;;;;;5073148;28;20115;-65
2022/06/15 01:25:06;;;;;;;5.75;4.07;;;15.40;99.90;;;;;;5068233;28;20090;-70
2022/06/15 01:28:00;;;;;;;7.65;3.80;;;15.30;99.90;;;;;;5068489;28;20036;-68
2022/06/15 01:30:29;;;;;;;4.85;3.00;;;15.30;99.90;;;;;;5068655;28;20036;-70
2022/06/15 01:33:20;;;;;;;7.25;3.35;;;15.30;99.90;;;;;;5069084;28;20025;-68
2022/06/15 01:36:03;;;;;;;6.30;3.75;;;15.30;99.90;;;;;;5071200;28;20043;-70
2022/06/15 01:38:40;;;;;;;8.88;3.53;;;15.30;99.90;;;;;;5067697;28;20063;-71
2022/06/15 01:41:13;;;;;;;8.30;4.45;;;15.30;99.90;;;;;;5071719;28;20020;-70
2022/06/15 01:43:45;;;;;;;10.77;3.83;;;15.20;99.90;;;;;;5069397;28;20024;-69
2022/06/15 01:46:11;;;;;;;6.35;4.00;;;15.20;99.90;;;;;;5068620;28;20086;-69
2022/06/15 01:48:40;;;;;;;4.20;3.17;;;15.20;99.90;;;;;;5067428;28;20040;-71
2022/06/15 01:51:17;;;;;;;8.02;4.07;;;15.10;99.90;;;;;;5066493;28;20101;-71
2022/06/15 01:53:59;;;;;;;6.35;3.55;;;15.10;99.90;;;;;;5080761;28;20086;-70
2022/06/15 01:56:34;;;;;;;6.25;3.75;;;15.10;99.90;;;;;;5068582;28;20103;-69
2022/06/15 01:59:13;;;;;;;6.85;3.65;;;15.10;99.90;;;;;;5082502;28;20035;-66
2022/06/15 02:01:51;;;;;;;7.38;4.32;;;14.80;99.90;;;;;;5083294;28;20033;-70
2022/06/15 02:04:35;;;;;;;9.40;4.57;;;14.70;99.90;;;;;;5069307;28;20024;-70
2022/06/15 02:07:16;;;;;;;8.77;4.07;;;14.60;99.90;;;;;;5068732;28;20021;-70
2022/06/15 02:09:49;;;;;;;8.52;3.80;;;14.80;99.90;;;;;;5068626;28;20049;-71
2022/06/15 02:12:21;;;;;;;6.35;3.80;;;14.70;99.90;;;;;;5070051;28;20413;-70
2022/06/15 02:14:56;;;;;;;8.23;3.50;;;14.70;99.90;;;;;;5068540;28;20389;-70
2022/06/15 02:17:38;;;;;;;7.93;3.58;;;14.70;99.90;;;;;;5068837;28;20041;-70
2022/06/15 02:20:09;;;;;;;8.00;3.95;;;14.70;99.90;;;;;;5068225;28;20025;-71
2022/06/15 02:22:39;;;;;;;8.43;4.57;;;14.70;99.90;;;;;;5079413;28;20035;-71
2022/06/15 02:25:09;;;;;;;6.57;3.53;;;14.70;99.90;;;;;;5091294;28;20020;-70
2022/06/15 02:27:40;;;;;;;9.93;5.03;;;14.60;99.90;;;;;;5090174;28;20431;-71
2022/06/15 02:30:13;;;;;;;8.38;4.53;;;14.60;99.90;;;;;;5089782;28;20141;-71
2022/06/15 02:32:42;;;;;;;7.28;4.20;;;14.60;99.90;;;;;;5091334;28;20035;-70
2022/06/15 02:35:09;;;;;;;10.45;4.68;;;14.60;99.90;;;;;;5094959;28;20036;-70
2022/06/15 02:37:35;;;;;;;7.40;4.15;;;14.60;99.90;;;;;;5095177;28;20443;-71
2022/06/15 02:40:02;;;;;;;8.13;4.30;;;14.60;99.90;;;;;;5093249;28;20120;-71
2022/06/15 02:42:34;;;;;;;11.50;4.90;;;14.70;99.90;;;;;;5093712;28;20028;-71
2022/06/15 02:45:10;;;;;;;10.13;5.03;;;14.70;99.90;;;;;;5093417;28;20063;-71
2022/06/15 02:47:41;;;;;;;12.18;5.88;;;14.70;99.90;;;;;;5079927;28;20016;-71
2022/06/15 02:50:09;;;;;;;9.93;5.35;;;14.70;99.90;;;;;;5093569;28;20044;-72
2022/06/15 02:52:41;;;;;;;12.02;5.32;;;14.70;99.90;;;;;;5093705;28;20403;-70
2022/06/15 02:55:12;;;;;;;11.60;5.82;;;14.70;99.90;;;;;;5092986;28;20481;-69
2022/06/15 02:57:46;;;;;;;8.52;4.13;;;14.70;99.90;;;;;;5088896;28;20072;-70
2022/06/15 03:00:13;;;;;;;10.02;4.30;;;14.60;99.90;;;;;;5092230;28;20020;-71
2022/06/15 03:02:42;;;;;;;9.15;4.43;;;14.60;99.90;;;;;;5078504;28;20021;-71
2022/06/15 03:05:09;;;;;;;11.88;4.57;;;14.60;99.90;;;;;;5094520;28;20020;-71
2022/06/15 03:07:35;;;;;;;7.93;4.50;;;14.70;99.90;;;;;;5093048;28;20372;-68
2022/06/15 03:10:01;;;;;;;10.73;5.10;;;14.70;99.90;;;;;;5092765;28;20156;-69
2022/06/15 03:12:27;;;;;;;10.25;4.60;;;14.80;99.90;;;;;;5092980;28;20088;-71
2022/06/15 03:14:53;;;;;;;12.32;4.03;;;14.70;99.90;;;;;;5092765;28;20024;-70
2022/06/15 03:17:21;;;;;;;9.23;4.80;;;14.80;99.90;;;;;;5092669;28;20054;-71
2022/06/15 03:19:52;;;;;;;11.82;4.95;;;14.80;99.90;;;;;;5092863;28;20114;-71
2022/06/15 03:22:18;;;;;;;6.22;4.15;;;14.90;99.90;;;;;;5085841;28;20150;-72
2022/06/15 03:24:48;;;;;;;8.43;4.32;;;15.00;99.90;;;;;;5086892;28;20020;-72
2022/06/15 03:27:18;;;;;;;8.98;4.25;;;15.00;99.90;;;;;;5092455;28;20505;-71
2022/06/15 03:29:47;;;;;;;10.40;4.57;;;15.10;99.90;;;;;;5092363;28;20028;-71
2022/06/15 03:32:15;;;;;;;9.85;5.20;;;15.10;99.90;;;;;;5092807;28;20136;-71
2022/06/15 03:35:00;;;;;;;11.38;5.07;;;15.10;99.90;;;;;;5092118;28;20029;-71
2022/06/15 03:37:29;;;;;;;9.85;4.72;;;15.20;99.90;;;;;;5092505;28;20058;-71
2022/06/15 03:40:11;;;;;;;11.18;5.10;;;15.20;99.90;;;;;;5092025;28;20470;-71
2022/06/15 03:42:42;;;;;;;9.82;5.47;;;15.70;99.90;;;;;;5092545;28;20139;-71
2022/06/15 03:45:13;;;;;;;17.23;5.75;;;17.00;99.90;;;;;;5091790;28;20036;-71
2022/06/15 03:47:40;;;;;;;12.55;5.85;;;18.00;99.90;;;;;;5092243;28;20027;-71
2022/06/15 03:50:08;;;;;;;9.30;5.00;;;18.60;99.90;;;;;;5091958;28;20052;-71
2022/06/15 03:52:35;;;;;;;11.48;5.55;;;19.50;99.90;;;;;;5091524;28;20034;-70
2022/06/15 03:55:01;;;;;;;10.95;5.85;;;19.70;98.90;;;;;;5092059;28;20150;-71
2022/06/15 03:57:27;;;;;;;11.18;4.93;;;20.10;96.20;;;;;;5092342;28;20028;-70
2022/06/15 03:59:55;;;;;;;9.80;5.68;;;21.50;95.30;;;;;;5091989;28;20028;-72
2022/06/15 04:02:40;;;;;;;9.68;5.55;;;22.00;90.80;;;;;;5080435;28;20455;-72
2022/06/15 04:05:18;;;;;;;8.05;4.93;;;23.10;87.20;;;;;;5092101;28;20050;-71
2022/06/15 04:10:33;;;;;;;11.65;5.18;;;;;;;;;;5091116;28;20039;-70
2022/06/15 04:13:03;;;;;;;9.43;4.97;;;24.00;76.20;;;;;;5091697;28;20036;-72
2022/06/15 04:15:29;;;;;;;11.25;5.40;;;24.30;76.60;;;;;;5091037;28;20027;-71
2022/06/15 04:17:56;;;;;;;13.93;5.43;;;;;;;;;;5090906;28;20077;-70
2022/06/15 04:20:37;;;;;;;10.83;6.00;;;24.40;90.20;;;;;;5091483;28;20351;-73
2022/06/15 04:23:19;;;;;;;7.43;4.68;;;24.60;85.80;;;;;;5076990;28;20950;-73
2022/06/15 04:25:58;;;;;;;8.75;4.75;;;24.70;75.20;;;;;;5091314;28;20039;-72
2022/06/15 04:28:30;;;;;;;8.23;4.70;;;26.20;72.90;;;;;;5091367;28;20032;-72
2022/06/15 04:31:01;;;;;;;7.18;4.28;;;26.50;70.50;;;;;;5091242;28;20093;-69
2022/06/15 04:33:32;;;;;;;10.52;4.82;;;27.00;69.90;;;;;;5090895;28;20028;-74
2022/06/15 04:35:59;;;;;;;8.48;4.97;;;26.00;70.50;;;;;;5091653;28;20505;-75
2022/06/15 04:38:26;;;;;;;6.82;4.75;;;26.50;70.20;;;;;;5091922;28;20053;-74
2022/06/15 04:40:57;;;;;;;9.10;5.10;;;27.10;68.60;;;;;;5091500;28;20027;-74
2022/06/15 04:43:23;;;;;;;12.02;5.68;;;27.10;68.10;;;;;;5092640;28;20028;-75
2022/06/15 04:45:49;;;;;;;11.05;5.15;;;28.00;69.00;;;;;;5091132;28;20476;-74
2022/06/15 04:48:22;;;;;;;9.88;6.15;;;27.70;67.30;;;;;;5085285;28;20031;-74
2022/06/15 04:50:49;;;;;;;10.93;4.93;;;27.70;70.20;;;;;;5086734;28;20071;-74
2022/06/15 04:53:15;;;;;;;10.98;5.28;;;27.50;71.10;;;;;;5090555;28;20120;-73
2022/06/15 04:55:40;;;;;;;9.45;5.07;;;27.10;68.90;;;;;;5091801;28;20386;-74
2022/06/15 04:58:06;;;;;;;12.23;4.78;;;26.00;69.50;;;;;;5092702;28;20051;-75
2022/06/15 05:00:40;;;;;;;9.35;4.30;;;24.80;70.80;;;;;;5091218;28;20028;-74
2022/06/15 05:03:07;;;;;;;;;;;24.40;74.30;;;;;;5091936;28;20032;-73
2022/06/15 05:05:33;;;;;;;9.82;5.00;;;23.80;76.70;;;;;;5091187;28;20003;-73
2022/06/15 05:08:04;;;;;;;10.07;5.30;;;23.40;78.70;;;;;;5091183;28;20110;-74
2022/06/15 05:10:30;;;;;;;10.43;5.07;;;23.20;80.70;;;;;;5092517;28;20038;-74
2022/06/15 05:12:56;;;;;;;8.07;4.68;;;23.20;81.40;;;;;;5090491;28;20032;-73
2022/06/15 05:15:24;;;;;;;10.45;4.90;;;23.10;83.10;;;;;;5091378;28;20056;-72
2022/06/15 05:18:01;;;;;;;6.88;4.72;;;23.00;82.60;;;;;;5090993;28;20031;-73
2022/06/15 05:20:28;;;;;;;10.93;4.70;;;;;;;;;;5091329;28;20473;-71
2022/06/15 05:22:55;;;;;;;9.80;4.47;;;22.50;86.70;;;;;;5077837;28;20040;-74
2022/06/15 05:25:28;;;;;;;9.90;4.82;;;22.70;86.40;;;;;;5076833;28;20080;-73
2022/06/15 05:27:54;;;;;;;7.38;4.10;;;22.80;87.10;;;;;;5091867;28;20048;-74
2022/06/15 05:30:21;;;;;;;9.05;4.32;;;22.90;89.90;;;;;;5090781;28;20486;-73
2022/06/15 05:32:47;;;;;;;9.75;4.85;;;23.10;89.00;;;;;;5090867;28;20032;-72
2022/06/15 05:35:16;;;;;;;11.90;4.05;;;23.00;88.00;;;;;;5090438;28;20859;-71
2022/06/15 05:37:42;;;;;;;9.65;4.25;;;23.10;87.30;;;;;;5090583;28;20017;-72
2022/06/15 05:40:09;;;;;;;9.15;4.05;;;23.00;87.20;;;;;;5090610;28;20024;-71
2022/06/15 05:42:35;;;;;;;6.35;3.90;;;23.20;86.20;;;;;;5090769;28;20032;-72
2022/06/15 05:45:09;;;;;;;8.02;3.97;;;23.50;88.80;;;;;;5090148;28;20083;-72
2022/06/15 05:47:35;;;;;;;10.07;3.80;;;23.40;84.40;;;;;;5091937;28;20423;-73
2022/06/15 05:50:05;;;;;;;10.77;4.20;;;23.40;82.60;;;;;;5091510;28;20457;-73
2022/06/15 05:52:39;;;;;;;9.63;4.40;;;23.40;83.10;;;;;;5090774;28;20421;-73
2022/06/15 05:55:07;;;;;;;10.23;4.20;;;23.50;81.80;;;;;;5091824;28;20017;-72
2022/06/15 05:57:33;;;;;;;8.55;4.03;;;23.70;84.40;;;;;;5091778;28;20048;-74
2022/06/15 06:00:00;;;;;;;7.03;3.50;;;23.60;82.90;;;;;;5091621;28;20055;-73
2022/06/15 06:02:27;;;;;;;11.45;4.20;;;23.80;81.80;;;;;;5091510;28;20020;-73
2022/06/15 06:04:53;;;;;;;10.85;4.90;;;23.90;81.50;;;;;;5091824;28;20353;-72
2022/06/15 06:07:21;;;;;;;9.45;4.63;;;24.00;80.70;;;;;;5094228;28;20028;-72
2022/06/15 06:09:47;;;;;;;7.68;3.58;;;24.10;79.70;;;;;;5096040;28;20020;-72
2022/06/15 06:12:14;;;;;;;9.30;4.03;;;24.10;81.60;;;;;;5095991;28;20408;-73
2022/06/15 06:14:42;;;;;;;10.90;3.88;;;24.20;80.90;;;;;;5096139;28;20081;-73
2022/06/15 06:17:09;;;;;;;5.70;3.28;;;24.30;82.10;;;;;;5095905;28;20024;-74
2022/06/15 06:19:35;;;;;;;12.55;4.13;;;24.60;80.20;;;;;;5095735;28;20096;-71
2022/06/15 06:22:01;;;;;;;7.95;3.40;;;24.20;77.90;;;;;;5089780;28;20019;-72
2022/06/15 06:24:27;;;;;;;9.52;4.10;;;24.20;77.70;;;;;;5095376;28;20028;-71
2022/06/15 06:27:00;;;;;;;9.48;4.10;;;24.10;78.10;;;;;;5095272;28;20482;-71
2022/06/15 06:29:27;;;;;;;8.90;3.58;;;24.00;76.70;;;;;;5095425;28;20071;-74
2022/06/15 06:31:53;;;;;;;7.38;3.50;;;24.10;74.40;;;;;;5095285;28;20036;-73
2022/06/15 06:34:19;;;;;;;6.43;3.50;;;23.90;79.90;;;;;;5095710;28;20522;-75
2022/06/15 06:36:45;;;;;;;6.47;3.10;;;24.10;77.80;;;;;;5095550;28;20032;-73
2022/06/15 06:39:18;;;;;;;7.40;2.95;;;24.30;75.40;;;;;;5094957;28;20478;-74
2022/06/15 06:41:44;;;;;;;6.72;2.90;;;24.60;74.00;;;;;;5095002;28;20027;-73
2022/06/15 06:44:11;;;;;;;7.28;2.75;;;24.70;73.80;;;;;;5080734;28;20019;-74
2022/06/15 06:46:40;;;;;;;4.88;3.17;;;24.50;74.80;;;;;;5094762;28;20031;-74
2022/06/15 06:49:06;;;;;;;12.65;3.10;;;24.70;72.10;;;;;;5094655;28;20022;-74
2022/06/15 06:51:35;;;;;;;6.30;3.13;;;25.00;70.30;;;;;;5095058;28;20028;-75
2022/06/15 06:54:01;;;;;;;6.53;2.95;;;24.60;69.50;;;;;;5094371;28;20047;-73
2022/06/15 06:56:27;;;;;;;6.20;3.08;;;24.60;69.60;;;;;;5095160;28;20048;-74
2022/06/15 06:58:53;;;;;;;6.28;2.83;;;24.40;71.30;;;;;;5092988;28;20020;-73
2022/06/15 07:01:19;;;;;;;7.72;2.97;;;24.60;72.20;;;;;;5094292;28;20111;-71
2022/06/15 07:03:44;;;;;;;7.85;2.72;;;25.00;73.00;;;;;;5094962;28;20032;-74
2022/06/15 07:06:11;;;;;;;8.10;3.20;;;25.20;72.30;;;;;;5094244;28;20032;-74
2022/06/15 07:08:38;;;;;;;8.98;3.55;;;25.60;69.80;;;;;;5093547;28;20042;-73
2022/06/15 07:11:11;;;;;;;11.35;3.15;;;25.30;67.50;;;;;;5093749;28;20039;-74
2022/06/15 07:13:37;;;;;;;7.13;3.10;;;25.70;68.80;;;;;;5093999;28;20477;-75
2022/06/15 07:16:08;;;;;;;7.40;2.72;;;25.40;68.00;;;;;;5093595;28;20509;-69
2022/06/15 07:18:34;;;;;;;4.25;2.60;;;25.30;69.00;;;;;;5092997;28;20019;-73
2022/06/15 07:21:04;;;;;;;6.18;2.67;;;25.30;68.00;;;;;;5093669;28;20111;-74
2022/06/15 07:23:30;;;;;;;5.70;2.55;;;25.40;67.10;;;;;;5093368;28;20378;-73
2022/06/15 07:25:57;;;;;;;5.78;2.65;;;25.50;67.60;;;;;;5094276;28;20032;-73
2022/06/15 07:28:23;;;;;;;7.38;2.65;;;25.80;71.80;;;;;;5094026;28;20027;-73
2022/06/15 07:30:48;;;;;;;6.10;2.33;;;26.40;70.40;;;;;;5093038;28;20032;-74
2022/06/15 07:33:15;;;;;;;7.05;2.80;;;26.20;65.70;;;;;;5092949;28;20387;-74
2022/06/15 07:35:41;;;;;;;6.20;2.85;;;26.20;67.90;;;;;;5087502;28;20026;-75
2022/06/15 07:38:07;;;;;;;3.45;2.45;;;26.20;65.60;;;;;;5093541;28;20047;-74
2022/06/15 07:40:33;;;;;;;6.75;2.65;;;26.10;66.90;;;;;;5092559;28;20024;-74
2022/06/15 07:43:00;;;;;;;5.80;2.65;;;26.20;65.60;;;;;;5093559;28;20078;-74
2022/06/15 07:45:26;;;;;;;4.82;2.17;;;26.20;65.40;;;;;;5093671;28;20089;-74
2022/06/15 07:50:41;;;;;;;4.10;2.25;;;25.80;63.00;;;;;;5093327;28;20405;-75
2022/06/15 07:53:09;;;;;;;6.47;2.35;;;26.30;64.60;;;;;;5093541;28;20020;-73
2022/06/15 07:55:37;;;;;;;7.55;3.03;;;26.30;64.80;;;;;;5093633;28;20106;-72
2022/06/15 07:58:04;;;;;;;4.63;2.40;;;26.50;63.70;;;;;;5093617;28;20040;-74
2022/06/15 08:00:30;;;;;;;7.43;2.88;;;26.80;64.10;;;;;;5093605;28;20032;-74
2022/06/15 08:02:58;;;;;;;7.28;2.83;;;26.40;64.20;;;;;;5093593;28;20020;-70
2022/06/15 08:05:26;;;;;;;7.47;2.60;;;26.30;67.50;;;;;;5093525;28;20097;-74
2022/06/15 08:07:52;;;;;;;6.53;2.55;;;26.70;68.80;;;;;;5093121;28;20450;-75
2022/06/15 08:10:21;;;;;;;7.15;2.08;;;26.90;67.60;;;;;;5093061;28;20071;-72
2022/06/15 08:12:47;;;;;;;5.75;2.30;;;26.70;66.80;;;;;;5092785;28;20028;-75
2022/06/15 08:15:14;;;;;;;4.95;2.42;;;26.60;66.10;;;;;;5092908;28;20035;-75
2022/06/15 08:17:45;;;;;;;2.20;2.00;;;26.40;65.00;;;;;;5093292;28;20024;-70
2022/06/15 08:20:20;;;;;;;4.97;2.42;;;26.40;66.60;;;;;;5092546;28;20036;-70
2022/06/15 08:22:49;;;;;;;3.67;2.08;;;26.20;66.10;;;;;;5092559;28;20043;-73
2022/06/15 08:25:20;;;;;;;3.58;2.33;;;26.30;64.80;;;;;;5092635;28;20036;-68
2022/06/15 08:27:47;;;;;;;4.25;2.50;;;26.20;64.90;;;;;;5092195;28;20493;-73
2022/06/15 08:30:14;;;;;;;8.50;2.40;;;26.40;65.80;;;;;;5091210;28;20119;-73
2022/06/15 08:32:40;;;;;;;8.95;2.25;;;26.80;66.40;;;;;;5092286;28;20016;-73
2022/06/15 08:35:07;;;;;;;4.90;1.95;;;26.70;65.20;;;;;;5092630;28;20031;-74
2022/06/15 08:37:33;;;;;;;7.40;2.63;;;26.90;64.20;;;;;;5092433;28;20466;-71
2022/06/15 08:39:59;;;;;;;7.47;2.67;;;26.90;66.00;;;;;;5091749;28;20091;-73
2022/06/15 08:42:53;;;;;;;12.75;3.00;;;26.70;65.10;;;;;;5092078;28;20024;-74
2022/06/15 08:45:35;;;;;;;5.93;2.17;;;26.00;63.50;;;;;;5091925;28;20028;-74
2022/06/15 08:48:23;;;;;;;5.22;2.15;;;26.00;64.00;;;;;;5092055;28;20039;-74
2022/06/15 08:50:59;;;;;;;5.45;2.30;;;26.10;67.30;;;;;;5090458;28;20055;-74
2022/06/15 08:53:38;;;;;;;6.25;2.30;;;26.50;65.60;;;;;;5091452;28;20042;-74
2022/06/15 08:56:13;;;;;;;4.38;2.30;;;27.00;65.50;;;;;;5092049;28;20587;-74
2022/06/15 08:59:05;;;;;;;4.93;2.05;;;26.80;62.30;;;;;;5090860;28;20051;-73
2022/06/15 09:02:13;;;;;;;4.78;1.90;;;26.30;61.80;;;;;;5109488;28;20042;-73
2022/06/15 09:05:04;;;;;;;6.90;2.00;;;26.30;64.80;;;;;;5096508;28;20027;-74
2022/06/15 09:07:36;;;;;;;6.88;2.88;;;26.50;64.40;;;;;;5009423;28;20436;-74
2022/06/15 09:10:14;;;;;;;6.13;2.45;;;26.40;64.80;;;;;;5009438;28;20034;-73
2022/06/15 09:12:49;;;;;;;2.72;2.17;;;26.30;62.70;;;;;;5009431;28;20599;-74
2022/06/15 09:15:37;;;;;;;6.10;2.90;;;26.70;66.70;;;;;;5009654;28;20166;-75
2022/06/15 09:18:15;;;;;;;7.35;2.63;;;26.30;63.20;;;;;;5023144;28;20392;-74
2022/06/15 09:20:53;;;;;;;7.28;1.90;;;25.90;62.60;;;;;;5014278;28;20147;-69
2022/06/15 09:23:31;;;;;;;2.83;2.00;;;25.90;64.60;;;;;;5009020;28;20688;-72
2022/06/15 09:26:03;;;;;;;6.05;2.40;;;26.40;65.70;;;;;;5004946;28;20068;-71
2022/06/15 09:29:20;;;;;;;4.07;2.47;;;26.70;65.30;;;;;;5009404;28;20485;-71
2022/06/15 09:31:51;;;;;;;3.63;2.20;;;26.60;65.50;;;;;;4950107;29;20097;-72
2022/06/15 09:34:33;;;;;;;2.75;1.70;;;26.90;63.30;;;;;;4951040;29;20129;-69
2022/06/15 09:37:00;;;;;;;5.18;2.05;;;26.80;62.60;;;;;;4950424;29;20149;-68
2022/06/15 09:39:28;;;;;;;6.72;1.83;;;26.80;62.30;;;;;;4935956;29;20071;-71
2022/06/15 09:42:13;;;;;;;7.32;2.38;;;26.60;64.00;;;;;;4930977;29;20050;-71
2022/06/15 09:44:42;;;;;;;5.93;2.22;;;26.60;62.80;;;;;;4983704;28;20052;-72
2022/06/15 09:47:19;;;;;;;4.82;2.15;;;26.10;61.40;;;;;;5026440;28;20018;-71
2022/06/15 09:49:48;;;;;;;4.88;1.92;;;26.50;63.20;;;;;;5008230;28;20053;-74
2022/06/15 09:52:24;;;;;;;4.75;2.22;;;26.30;61.50;;;;;;5023797;28;20091;-68
2022/06/15 09:55:09;;;;;;;3.70;2.05;;;26.10;61.70;;;;;;5029185;28;20033;-70
2022/06/15 09:57:37;;;;;;;3.83;2.00;;;26.40;63.60;;;;;;5027065;28;20648;-70
2022/06/15 10:00:05;;;;;;;6.43;2.15;;;26.90;62.10;;;;;;5026916;28;20885;-72
2022/06/15 10:02:39;;;;;;;5.00;2.28;;;26.70;61.70;;;;;;5055867;28;20113;-73
2022/06/15 10:05:11;;;;;;;4.38;1.88;;;26.50;60.70;;;;;;5091849;28;20024;-72
2022/06/15 10:07:43;;;;;;;2.67;1.70;;;26.70;62.80;;;;;;5091318;28;20032;-73
2022/06/15 10:10:21;;;;;;;4.03;1.70;;;26.50;61.80;;;;;;5090585;28;20079;-73
2022/06/15 10:13:03;;;;;;;3.03;1.88;;;26.80;62.10;;;;;;5090873;28;20534;-74
2022/06/15 10:15:41;;;;;;;6.28;2.03;;;27.10;61.30;;;;;;5091543;28;20105;-72
2022/06/15 10:18:29;;;;;;;3.75;1.95;;;26.80;61.10;;;;;;5091352;28;20078;-71
2022/06/15 10:20:55;;;;;;;3.08;1.98;;;26.90;62.40;;;;;;5088360;28;20433;-73
2022/06/15 10:23:28;;;;;;;2.88;1.77;;;26.70;60.40;;;;;;5074350;28;20048;-71
2022/06/15 10:25:55;;;;;;;5.90;1.75;;;26.70;61.20;;;;;;5088118;28;20760;-72
2022/06/15 10:28:31;;;;;;;5.93;2.55;;;26.90;61.70;;;;;;5088361;28;20130;-74
2022/06/15 10:31:02;;;;;;;4.70;2.00;;;26.90;61.50;;;;;;5088941;28;20032;-73
2022/06/15 10:33:55;;;;;;;4.05;2.05;;;27.00;63.90;;;;;;5088165;28;20032;-66
2022/06/15 10:36:34;;;;;;;6.13;2.38;;;27.00;60.30;;;;;;5084550;28;20513;-74
2022/06/15 10:39:19;;;;;;;2.13;1.70;;;26.80;61.90;;;;;;5088958;28;20039;-73
2022/06/15 10:41:48;;;;;;;4.22;2.38;;;26.80;62.50;;;;;;5071439;28;20048;-72
2022/06/15 10:44:35;;;;;;;7.18;2.30;;;26.60;61.40;;;;;;5088643;28;20028;-73
2022/06/15 10:47:02;;;;;;;2.92;1.55;;;26.60;62.80;;;;;;5089288;28;20671;-73
2022/06/15 10:49:32;;;;;;;3.95;2.05;;;26.70;61.70;;;;;;5088593;28;20126;-75
2022/06/15 10:51:58;;;;;;;5.18;1.83;;;26.00;60.60;;;;;;5088888;28;20121;-70
2022/06/15 11:02:06;;;;;;;5.38;1.92;;;26.10;60.20;;;;;;5091673;28;20036;-72
2022/06/15 11:03:21;;;;;;;6.35;2.30;;;26.10;60.20;;;;;;5075155;28;20106;-73
2022/06/15 11:05:49;;;;;;;3.35;1.95;;;26.50;61.30;;;;;;5073066;28;20082;-73
2022/06/15 11:08:29;;;;;;;4.13;2.42;;;26.30;62.10;;;;;;5073088;28;20114;-74
2022/06/15 11:11:26;;;;;;;5.85;2.13;;;26.20;62.00;;;;;;5073149;28;20506;-72
2022/06/15 11:13:57;;;;;;;3.65;2.10;;;25.90;60.40;;;;;;5076698;28;20420;-75
2022/06/15 11:19:25;;;;;;;3.05;1.70;;;26.10;63.50;;;;;;5093631;28;20050;-74
2022/06/15 11:22:01;;;;;;;3.42;1.88;;;26.30;62.80;;;;;;5090096;28;20127;-74
2022/06/15 11:24:36;;;;;;;12.80;2.08;;;26.20;62.60;;;;;;5085571;28;20024;-72
2022/06/15 11:27:19;;;;;;;5.22;2.50;;;26.40;66.70;;;;;;5094464;28;20019;-75
2022/06/15 11:30:02;;;;;;;3.78;2.13;;;26.20;61.60;;;;;;5094131;28;20067;-74
2022/06/15 11:32:45;;;;;;;5.78;2.00;;;26.20;64.90;;;;;;5093675;28;20085;-74
2022/06/15 11:35:14;;;;;;;4.05;2.38;;;26.40;63.10;;;;;;5093792;28;20032;-74
2022/06/15 11:37:48;;;;;;;6.35;1.98;;;26.20;64.60;;;;;;5094489;28;20017;-64
2022/06/15 11:40:26;;;;;;;4.80;1.95;;;26.20;62.00;;;;;;5094433;28;20017;-64
2022/06/15 11:42:53;;;;;;;3.15;2.08;;;26.00;64.00;;;;;;5093719;28;20036;-74
2022/06/15 11:45:28;;;;;;;4.38;1.80;;;26.10;65.80;;;;;;5093580;28;20077;-63
2022/06/15 11:48:09;;;;;;;4.78;2.10;;;26.30;63.90;;;;;;5093310;28;20024;-64
2022/06/15 11:51:05;;;;;;;5.85;2.05;;;26.60;66.20;;;;;;5093241;28;20048;-65
2022/06/15 11:54:21;;;;;;;3.17;1.90;;;26.60;62.60;;;;;;5083990;28;20036;-67
2022/06/15 11:57:10;;;;;;;2.33;1.80;;;26.50;64.00;;;;;;5062270;28;20497;-74
2022/06/15 12:00:02;;;;;;;6.55;2.33;;;26.60;65.00;;;;;;5013902;28;20034;-63
2022/06/15 12:02:57;;;;;;;4.47;2.08;;;27.10;66.70;;;;;;5011878;28;20036;-70
2022/06/15 12:05:40;;;;;;;4.50;2.28;;;27.20;65.40;;;;;;5014470;28;20117;-73
2022/06/15 12:08:08;;;;;;;4.38;1.70;;;27.50;66.00;;;;;;5011249;28;20420;-71
2022/06/15 12:10:44;;;;;;;2.05;1.45;;;27.40;66.20;;;;;;5011507;28;20080;-74
2022/06/15 12:13:20;;;;;;;5.15;2.40;;;27.10;65.00;;;;;;5010999;28;20185;-75
2022/06/15 12:16:21;;;;;;;4.35;2.20;;;26.90;63.70;;;;;;5014017;28;20026;-74
2022/06/15 12:19:10;;;;;;;2.42;1.50;;;27.00;68.80;;;;;;5004003;28;20038;-74
2022/06/15 12:21:48;;;;;;;4.97;1.98;;;27.00;65.40;;;;;;4997902;28;20388;-74
2022/06/15 12:24:44;;;;;;;12.25;2.17;;;26.70;66.30;;;;;;5010910;28;20041;-69
2022/06/15 12:27:26;;;;;;;4.03;1.90;;;26.80;66.00;;;;;;5011253;28;20946;-68
2022/06/15 12:29:51;;;;;;;;;;;26.70;66.50;;;;;;5011282;28;20049;-74
2022/06/15 12:32:36;;;;;;;7.82;2.03;;;26.80;69.00;;;;;;5025646;28;19917;-75
2022/06/15 12:35:11;;;;;;;2.90;1.95;;;26.90;66.20;;;;;;5014677;28;20075;-75
2022/06/15 12:37:48;;;;;;;3.60;2.05;;;26.90;63.00;;;;;;5086545;28;20075;-72
2022/06/15 12:40:36;;;;;;;5.43;1.90;;;26.80;64.50;;;;;;5092760;28;20028;-75
2022/06/15 12:43:14;;;;;;;4.65;2.17;;;26.80;67.80;;;;;;5091915;28;20032;-72
2022/06/15 12:45:51;;;;;;;3.38;1.98;;;26.90;70.80;;;;;;5091488;28;20040;-74
2022/06/15 12:48:26;;;;;;;2.30;1.85;;;26.70;63.90;;;;;;5089462;28;20489;-74
2022/06/15 12:51:04;;;;;;;2.97;1.90;;;26.70;63.40;;;;;;5092030;28;20489;-74
2022/06/15 12:54:02;;;;;;;3.42;1.73;;;26.80;64.20;;;;;;5088011;28;20043;-74
2022/06/15 12:56:38;;;;;;;4.00;2.00;;;26.90;63.20;;;;;;5080144;28;20044;-75
2022/06/15 12:59:41;;;;;;;3.30;1.52;;;26.80;62.00;;;;;;5086875;28;20027;-73
2022/06/15 13:02:28;;;;;;;4.90;1.60;;;26.80;62.50;;;;;;5086230;28;20023;-74
2022/06/15 13:05:25;;;;;;;3.17;1.83;;;26.50;63.10;;;;;;5092699;28;20493;-73
2022/06/15 13:08:22;;;;;;;4.88;2.22;;;26.40;63.30;;;;;;5091062;28;20015;-73
2022/06/15 13:10:54;;;;;;;4.65;1.65;;;26.50;64.80;;;;;;5080060;28;20618;-62
2022/06/15 13:13:24;;;;;;;;;;;26.70;65.40;;;;;;5083932;28;20034;-71
2022/06/15 13:15:50;;;;;;;2.47;1.52;;;26.70;63.80;;;;;;5082657;28;19908;-72
2022/06/15 13:18:17;;;;;;;8.00;2.38;;;26.70;63.90;;;;;;5090837;28;20024;-69
2022/06/15 13:20:46;;;;;;;4.18;2.03;;;26.80;64.00;;;;;;5077016;28;20095;-71
2022/06/15 13:23:41;;;;;;;4.93;2.05;;;27.10;66.20;;;;;;5086608;28;20031;-73
2022/06/15 13:26:09;;;;;;;3.10;2.03;;;27.20;66.50;;;;;;5091991;28;20039;-73
2022/06/15 13:28:39;;;;;;;4.95;2.50;;;27.50;66.10;;;;;;5083430;28;20020;-73
2022/06/15 13:31:12;;;;;;;2.13;1.85;;;27.40;66.00;;;;;;5072245;28;20032;-73
2022/06/15 13:33:48;;;;;;;3.25;2.08;;;27.30;62.50;;;;;;5080000;28;20504;-72